createdAt,value
2017-08-24T00:00:54.774Z,12.13
2017-08-24T00:03:20.758Z,12.83
2017-08-24T00:05:46.728Z,13.93
2017-08-24T00:08:12.675Z,15.03
2017-08-24T00:10:38.629Z,13.53
2017-08-24T00:13:04.600Z,13.77
2017-08-24T00:15:30.627Z,13.10
2017-08-24T00:17:57.592Z,12.20
2017-08-24T00:20:23.648Z,13.10
2017-08-24T00:22:49.611Z,12.40
2017-08-24T00:25:15.577Z,12.90
2017-08-24T00:27:41.515Z,13.13
2017-08-24T00:30:07.499Z,13.60
2017-08-24T00:32:33.536Z,13.63
2017-08-24T00:34:59.567Z,14.33
2017-08-24T00:37:25.652Z,14.17
2017-08-24T00:39:51.631Z,12.80
2017-08-24T00:42:17.639Z,15.67
2017-08-24T00:44:43.571Z,13.73
2017-08-24T00:47:09.563Z,12.60
2017-08-24T00:49:35.543Z,13.30
2017-08-24T00:52:01.603Z,14.43
2017-08-24T00:54:27.582Z,13.43
2017-08-24T00:56:53.576Z,13.90
2017-08-24T00:59:19.711Z,14.43
2017-08-24T01:01:45.800Z,13.20
2017-08-24T01:04:11.850Z,15.10
2017-08-24T01:06:37.843Z,13.90
2017-08-24T01:09:03.853Z,13.70
2017-08-24T01:11:29.820Z,15.50
2017-08-24T01:13:55.777Z,15.50
2017-08-24T01:16:21.759Z,15.03
2017-08-24T01:18:47.744Z,15.27
2017-08-24T01:21:13.702Z,16.97
2017-08-24T01:23:40.625Z,16.17
2017-08-24T01:26:06.699Z,16.20
2017-08-24T01:28:32.709Z,19.50
2017-08-24T01:30:59.052Z,15.13
2017-08-24T01:33:25.026Z,15.70
2017-08-24T01:35:51.084Z,14.97
2017-08-24T01:38:17.089Z,13.80
2017-08-24T01:40:43.243Z,15.13
2017-08-24T01:43:10.015Z,14.90
2017-08-24T01:45:36.214Z,15.93
2017-08-24T01:48:02.464Z,15.70
2017-08-24T01:50:28.427Z,15.37
2017-08-24T01:52:54.452Z,15.33
2017-08-24T01:55:20.410Z,17.80
2017-08-24T01:57:46.448Z,15.37
2017-08-24T02:00:12.389Z,16.13
2017-08-24T02:02:38.440Z,15.80
2017-08-24T02:05:04.433Z,15.77
2017-08-24T02:07:30.435Z,15.60
2017-08-24T02:09:56.503Z,16.00
2017-08-24T02:12:22.517Z,18.17
2017-08-24T02:14:48.499Z,16.27
2017-08-24T02:17:14.453Z,15.77
2017-08-24T02:19:41.122Z,15.50
2017-08-24T02:22:07.079Z,14.63
2017-08-24T02:24:33.047Z,14.27
2017-08-24T02:26:59.180Z,14.07
2017-08-24T02:29:25.151Z,14.87
2017-08-24T02:31:51.183Z,13.60
2017-08-24T02:34:17.132Z,15.30
2017-08-24T02:36:43.169Z,15.20
2017-08-24T02:39:09.131Z,14.13
2017-08-24T02:41:35.116Z,14.70
2017-08-24T02:44:01.119Z,14.43
2017-08-24T02:46:27.145Z,14.30
2017-08-24T02:48:53.096Z,14.40
2017-08-24T02:51:19.477Z,14.20
2017-08-24T02:53:48.790Z,15.00
2017-08-24T02:56:17.287Z,14.77
2017-08-24T02:58:45.481Z,13.80
2017-08-24T03:01:12.276Z,14.00
2017-08-24T03:03:38.294Z,13.23
2017-08-24T03:06:04.252Z,14.23
2017-08-24T03:08:30.262Z,12.53
2017-08-24T03:10:56.255Z,14.70
2017-08-24T03:13:22.218Z,15.40
2017-08-24T03:15:48.232Z,14.87
2017-08-24T03:18:14.270Z,14.37
2017-08-24T03:20:40.284Z,13.27
2017-08-24T03:23:06.423Z,13.90
2017-08-24T03:25:34.175Z,15.70
2017-08-24T03:28:00.151Z,14.63
2017-08-24T03:30:26.204Z,13.87
2017-08-24T03:32:52.212Z,15.03
2017-08-24T03:35:19.080Z,15.43
2017-08-24T03:37:45.111Z,14.40
2017-08-24T03:40:11.135Z,14.70
2017-08-24T03:42:37.899Z,15.47
2017-08-24T03:45:03.876Z,14.13
2017-08-24T03:47:29.887Z,14.57
2017-08-24T03:49:55.903Z,13.77
2017-08-24T03:52:21.936Z,13.80
2017-08-24T03:54:47.911Z,14.87
2017-08-24T03:57:13.866Z,15.07
2017-08-24T03:59:39.826Z,16.43
2017-08-24T04:02:05.891Z,16.10
2017-08-24T04:04:31.852Z,15.73
2017-08-24T04:06:57.844Z,15.63
2017-08-24T04:09:23.872Z,15.70
2017-08-24T04:11:49.843Z,15.83
2017-08-24T04:14:15.821Z,16.33
2017-08-24T04:16:41.876Z,15.27
2017-08-24T04:19:08.108Z,15.70
2017-08-24T04:21:34.226Z,15.33
2017-08-24T04:24:00.410Z,15.43
2017-08-24T04:26:26.459Z,15.73
2017-08-24T04:28:52.761Z,16.33
2017-08-24T04:31:19.226Z,15.90
2017-08-24T04:33:45.230Z,16.70
2017-08-24T04:36:11.487Z,16.60
2017-08-24T04:38:38.382Z,15.90
2017-08-24T04:41:04.474Z,16.73
2017-08-24T04:43:30.555Z,16.63
2017-08-24T04:45:56.547Z,16.40
2017-08-24T04:48:22.595Z,16.00
2017-08-24T04:50:48.802Z,15.47
2017-08-24T04:53:14.775Z,16.07
2017-08-24T04:55:41.922Z,16.57
2017-08-24T04:58:08.136Z,15.70
2017-08-24T05:00:34.484Z,16.80
2017-08-24T05:03:00.513Z,17.60
2017-08-24T05:05:26.509Z,20.23
2017-08-24T05:07:52.759Z,16.17
2017-08-24T05:10:18.803Z,18.70
2017-08-24T05:12:46.798Z,18.00
2017-08-24T05:15:12.867Z,18.30
2017-08-24T05:17:39.648Z,18.13
2017-08-24T05:20:05.624Z,20.47
2017-08-24T05:22:31.732Z,21.17
2017-08-24T05:24:57.873Z,19.13
2017-08-24T05:27:23.985Z,19.30
2017-08-24T05:29:50.472Z,20.00
2017-08-24T05:32:16.638Z,22.33
2017-08-24T05:34:44.628Z,19.57
2017-08-24T05:37:10.962Z,19.23
2017-08-24T05:39:36.928Z,20.60
2017-08-24T05:42:02.884Z,21.33
2017-08-24T05:44:28.896Z,22.90
2017-08-24T05:46:55.155Z,23.90
2017-08-24T05:49:21.416Z,22.77
2017-08-24T05:51:47.715Z,21.97
2017-08-24T05:54:14.715Z,22.10
2017-08-24T05:56:40.768Z,21.70
2017-08-24T05:59:08.549Z,21.30
2017-08-24T06:01:34.738Z,22.97
2017-08-24T06:04:01.759Z,28.37
2017-08-24T06:06:27.799Z,20.50
2017-08-24T06:08:54.776Z,22.57
2017-08-24T06:11:20.832Z,21.63
2017-08-24T06:13:49.066Z,21.10
2017-08-24T06:16:15.171Z,20.30
2017-08-24T06:18:41.200Z,20.43
2017-08-24T06:21:07.243Z,20.53
2017-08-24T06:23:33.347Z,21.00
2017-08-24T06:25:59.557Z,19.50
2017-08-24T06:28:30.299Z,20.20
2017-08-24T06:30:56.379Z,19.03
2017-08-24T06:33:24.322Z,20.27
2017-08-24T06:35:50.429Z,19.03
2017-08-24T06:38:16.469Z,20.37
2017-08-24T06:40:42.467Z,17.07
2017-08-24T06:43:09.779Z,18.00
2017-08-24T06:45:35.985Z,18.37
2017-08-24T06:48:03.242Z,17.03
2017-08-24T06:50:30.276Z,17.73
2017-08-24T06:52:56.428Z,19.33
2017-08-24T06:55:24.272Z,20.03
2017-08-24T06:57:50.352Z,16.50
2017-08-24T07:00:18.247Z,16.90
2017-08-24T07:02:45.184Z,17.27
2017-08-24T07:05:11.309Z,16.70
2017-08-24T07:07:39.659Z,17.77
2017-08-24T07:10:06.103Z,17.77
2017-08-24T07:12:32.133Z,16.60
2017-08-24T07:14:58.476Z,17.53
2017-08-24T07:17:24.501Z,17.67
2017-08-24T07:19:52.575Z,17.23
2017-08-24T07:22:19.092Z,18.03
2017-08-24T07:24:45.264Z,16.10
2017-08-24T07:27:12.183Z,18.60
2017-08-24T07:29:38.447Z,18.30
2017-08-24T07:32:04.537Z,16.93
2017-08-24T07:34:30.529Z,18.17
2017-08-24T07:36:56.494Z,16.40
2017-08-24T07:39:23.443Z,16.67
2017-08-24T07:41:51.014Z,15.43
2017-08-24T07:44:17.040Z,17.00
2017-08-24T07:46:45.358Z,17.07
2017-08-24T07:49:11.399Z,21.87
2017-08-24T07:51:38.169Z,17.00
2017-08-24T07:54:04.184Z,15.17
2017-08-24T07:56:30.735Z,17.57
2017-08-24T07:58:56.715Z,17.23
2017-08-24T08:01:22.935Z,17.13
2017-08-24T08:03:50.700Z,19.10
2017-08-24T08:06:16.671Z,17.23
2017-08-24T08:08:42.617Z,17.20
2017-08-24T08:11:08.667Z,16.67
2017-08-24T08:13:34.701Z,20.10
2017-08-24T08:16:00.719Z,18.53
2017-08-24T08:18:27.543Z,18.53
2017-08-24T08:20:53.570Z,19.50
2017-08-24T08:23:19.547Z,17.83
2017-08-24T08:25:46.596Z,19.00
2017-08-24T08:30:43.324Z,18.47
2017-08-24T08:33:09.317Z,20.40
2017-08-24T08:35:35.289Z,16.80
2017-08-24T08:38:02.363Z,17.07
2017-08-24T08:40:28.381Z,19.67
2017-08-24T08:42:54.375Z,18.60
2017-08-24T08:45:21.145Z,17.67
2017-08-24T08:47:47.728Z,17.47
2017-08-24T08:50:13.710Z,16.13
2017-08-24T08:52:39.800Z,17.57
2017-08-24T08:55:06.447Z,16.73
2017-08-24T08:57:32.458Z,22.60
2017-08-24T08:59:58.393Z,16.67
2017-08-24T09:02:24.719Z,17.97
2017-08-24T09:04:50.743Z,16.93
2017-08-24T09:07:16.828Z,15.80
2017-08-24T09:09:42.841Z,16.93
2017-08-24T09:12:08.860Z,17.07
2017-08-24T09:14:34.852Z,17.97
2017-08-24T09:17:00.881Z,16.17
2017-08-24T09:19:26.913Z,13.20
2017-08-24T09:21:53.789Z,13.13
2017-08-24T09:24:19.961Z,16.03
2017-08-24T09:26:45.984Z,12.83
2017-08-24T09:29:11.969Z,10.17
2017-08-24T09:31:37.969Z,12.40
2017-08-24T09:34:05.716Z,8.33
2017-08-24T09:36:31.719Z,8.37
2017-08-24T09:38:58.173Z,8.30
2017-08-24T09:41:24.105Z,7.77
2017-08-24T09:43:50.326Z,8.10
2017-08-24T09:46:18.939Z,6.80
2017-08-24T09:48:44.882Z,8.20
2017-08-24T09:51:10.850Z,8.73
2017-08-24T09:53:37.101Z,7.30
2017-08-24T09:56:03.221Z,6.43
2017-08-24T09:58:30.043Z,9.10
2017-08-24T10:00:56.044Z,6.80
2017-08-24T10:03:22.385Z,8.37
2017-08-24T10:05:50.784Z,6.63
2017-08-24T10:08:16.776Z,6.60
2017-08-24T10:10:45.361Z,6.10
2017-08-24T10:13:11.771Z,4.23
2017-08-24T10:15:38.859Z,8.83
2017-08-24T10:18:04.972Z,6.57
2017-08-24T10:20:30.999Z,5.23
2017-08-24T10:22:56.920Z,5.40
2017-08-24T10:25:22.855Z,6.03
2017-08-24T10:27:49.186Z,5.90
2017-08-24T10:30:16.672Z,6.63
2017-08-24T10:32:43.081Z,5.77
2017-08-24T10:35:09.444Z,5.20
2017-08-24T10:37:35.408Z,7.10
2017-08-24T10:40:02.255Z,6.70
2017-08-24T10:42:28.255Z,7.07
2017-08-24T10:44:54.252Z,6.80
2017-08-24T10:47:21.655Z,6.10
2017-08-24T10:49:47.604Z,8.10
2017-08-24T10:52:13.704Z,6.93
2017-08-24T10:54:39.737Z,6.60
2017-08-24T10:57:05.707Z,6.30
2017-08-24T10:59:33.071Z,13.47
2017-08-24T11:01:59.032Z,9.33
2017-08-24T11:04:24.970Z,7.53
2017-08-24T11:06:51.013Z,6.33
2017-08-24T11:09:18.032Z,7.07
2017-08-24T11:11:43.958Z,5.97
2017-08-24T11:14:10.522Z,8.47
2017-08-24T11:16:36.946Z,6.47
2017-08-24T11:19:03.681Z,7.73
2017-08-24T11:21:29.655Z,8.10
2017-08-24T11:23:56.156Z,11.93
2017-08-24T11:26:23.321Z,7.47
2017-08-24T11:28:51.902Z,8.80
2017-08-24T11:31:18.530Z,7.30
2017-08-24T11:33:44.554Z,6.20
2017-08-24T11:36:11.148Z,8.33
2017-08-24T11:38:37.100Z,6.80
2017-08-24T11:41:03.154Z,11.10
2017-08-24T11:43:29.616Z,6.20
2017-08-24T11:45:55.888Z,6.30
2017-08-24T11:48:22.163Z,7.47
2017-08-24T11:50:48.953Z,6.97
2017-08-24T11:53:18.269Z,6.63
2017-08-24T11:58:16.673Z,5.97
2017-08-24T12:00:43.631Z,5.70
2017-08-24T12:05:47.927Z,8.70
2017-08-24T12:08:15.339Z,7.20
2017-08-24T12:10:45.668Z,6.57
2017-08-24T12:13:13.683Z,5.60
2017-08-24T12:15:39.730Z,6.17
2017-08-24T12:18:05.740Z,5.70
2017-08-24T12:20:33.532Z,5.50
2017-08-24T12:22:59.748Z,6.80
2017-08-24T12:25:27.084Z,8.67
2017-08-24T12:27:55.461Z,5.67
2017-08-24T12:30:24.400Z,9.40
2017-08-24T12:32:51.287Z,7.33
2017-08-24T12:35:17.431Z,8.77
2017-08-24T12:37:43.514Z,5.73
2017-08-24T12:40:10.262Z,4.80
2017-08-24T12:42:37.157Z,8.60
2017-08-24T12:45:04.240Z,7.57
2017-08-24T12:47:30.347Z,6.67
2017-08-24T12:49:57.198Z,6.93
2017-08-24T12:52:23.677Z,6.73
2017-08-24T12:54:51.659Z,7.20
2017-08-24T12:57:19.103Z,5.63
2017-08-24T12:59:49.815Z,9.07
2017-08-24T13:02:16.901Z,6.87
2017-08-24T13:04:43.808Z,5.47
2017-08-24T13:07:11.647Z,5.33
2017-08-24T13:09:37.656Z,5.70
2017-08-24T13:14:36.205Z,6.03
2017-08-24T13:17:02.399Z,6.13
2017-08-24T13:19:29.956Z,7.50
2017-08-24T13:21:56.105Z,4.73
2017-08-24T13:24:22.324Z,5.10
2017-08-24T13:26:48.438Z,4.70
2017-08-24T13:29:15.399Z,5.10
2017-08-24T13:31:43.959Z,5.40
2017-08-24T13:34:10.003Z,4.97
2017-08-24T13:36:36.083Z,4.60
2017-08-24T13:39:02.267Z,4.43
2017-08-24T13:41:28.396Z,5.50
2017-08-24T13:43:54.450Z,5.23
2017-08-24T13:46:20.513Z,5.30
2017-08-24T13:48:47.210Z,4.80
2017-08-24T13:51:13.160Z,6.00
2017-08-24T13:53:40.751Z,6.03
2017-08-24T13:56:06.972Z,4.43
2017-08-24T13:58:34.304Z,5.03
2017-08-24T14:01:01.306Z,8.03
2017-08-24T14:03:27.980Z,4.40
2017-08-24T14:05:54.847Z,6.47
2017-08-24T14:08:24.336Z,9.00
2017-08-24T14:10:50.485Z,4.70
2017-08-24T14:13:17.840Z,4.40
2017-08-24T14:15:44.612Z,4.73
2017-08-24T14:18:10.659Z,4.63
2017-08-24T14:20:36.693Z,4.90
2017-08-24T14:23:03.419Z,6.60
2017-08-24T14:25:29.485Z,4.47
2017-08-24T14:27:55.543Z,4.33
2017-08-24T14:30:26.612Z,4.80
2017-08-24T14:32:52.919Z,4.30
2017-08-24T14:35:22.742Z,4.30
2017-08-24T14:37:51.940Z,4.57
2017-08-24T14:40:19.677Z,4.20
2017-08-24T14:42:46.296Z,4.50
2017-08-24T14:45:13.103Z,3.90
2017-08-24T14:50:14.872Z,4.50
2017-08-24T14:52:40.895Z,4.40
2017-08-24T14:55:07.593Z,4.40
2017-08-24T14:57:33.724Z,4.23
2017-08-24T15:00:03.096Z,3.70
2017-08-24T15:02:30.218Z,3.33
2017-08-24T15:04:58.861Z,3.10
2017-08-24T15:07:27.578Z,3.40
2017-08-24T15:09:53.568Z,3.90
2017-08-24T15:12:19.853Z,3.40
2017-08-24T15:14:48.591Z,4.67
2017-08-24T15:17:15.573Z,7.10
2017-08-24T15:19:47.750Z,3.83
2017-08-24T15:22:15.539Z,3.60
2017-08-24T15:24:43.252Z,3.73
2017-08-24T15:27:09.271Z,3.60
2017-08-24T15:29:36.002Z,3.70
2017-08-24T15:32:02.715Z,4.73
2017-08-24T15:34:29.495Z,4.00
2017-08-24T15:36:56.728Z,3.90
2017-08-24T15:39:23.275Z,4.13
2017-08-24T15:41:49.274Z,4.03
2017-08-24T15:44:18.235Z,3.73
2017-08-24T15:46:45.753Z,3.20
2017-08-24T15:49:16.665Z,2.93
2017-08-24T15:51:44.251Z,5.17
2017-08-24T15:54:10.440Z,2.80
2017-08-24T15:56:36.482Z,8.57
2017-08-24T15:59:02.706Z,3.43
2017-08-24T16:01:28.764Z,4.40
2017-08-24T16:03:56.280Z,3.50
2017-08-24T16:06:27.081Z,4.00
2017-08-24T16:08:55.008Z,3.90
2017-08-24T16:11:22.480Z,3.70
2017-08-24T16:13:48.499Z,4.20
2017-08-24T16:16:15.773Z,2.93
2017-08-24T16:18:41.756Z,3.60
2017-08-24T16:21:07.730Z,3.17
2017-08-24T16:23:33.726Z,3.80
2017-08-24T16:25:59.755Z,3.40
2017-08-24T16:28:25.761Z,3.67
2017-08-24T16:30:51.759Z,3.93
2017-08-24T16:33:17.917Z,2.73
2017-08-24T16:35:43.927Z,7.07
2017-08-24T16:38:10.156Z,3.90
2017-08-24T16:40:39.475Z,3.70
2017-08-24T16:43:06.533Z,3.07
2017-08-24T16:45:32.702Z,4.63
2017-08-24T16:47:58.756Z,6.43
2017-08-24T16:50:27.852Z,6.13
2017-08-24T16:52:53.908Z,6.13
2017-08-24T16:55:20.130Z,3.20
2017-08-24T16:57:46.775Z,3.80
2017-08-24T17:00:13.575Z,3.67
2017-08-24T17:02:39.560Z,3.80
2017-08-24T17:05:05.519Z,4.03
2017-08-24T17:07:33.283Z,3.50
2017-08-24T17:10:00.052Z,4.30
2017-08-24T17:12:29.139Z,4.87
2017-08-24T17:14:55.264Z,3.97
2017-08-24T17:17:22.036Z,5.03
2017-08-24T17:19:48.051Z,4.67
2017-08-24T17:22:14.032Z,4.20
2017-08-24T17:24:39.973Z,4.03
2017-08-24T17:27:06.382Z,3.47
2017-08-24T17:29:32.418Z,4.43
2017-08-24T17:31:58.967Z,6.03
2017-08-24T17:36:57.833Z,3.60
2017-08-24T17:39:27.086Z,3.63
2017-08-24T17:41:53.001Z,4.27
2017-08-24T17:44:18.929Z,5.73
2017-08-24T17:46:46.510Z,5.30
2017-08-24T17:49:12.606Z,3.37
2017-08-24T17:51:39.398Z,4.60
2017-08-24T17:54:06.526Z,3.17
2017-08-24T17:56:33.076Z,3.87
2017-08-24T17:58:59.927Z,6.83
2017-08-24T18:01:27.195Z,6.80
2017-08-24T18:03:54.180Z,4.37
2017-08-24T18:06:20.192Z,4.70
2017-08-24T18:08:46.954Z,4.33
2017-08-24T18:11:14.700Z,3.80
2017-08-24T18:13:41.335Z,4.37
2017-08-24T18:16:07.293Z,5.90
2017-08-24T18:18:33.260Z,4.23
2017-08-24T18:20:59.241Z,4.20
2017-08-24T18:23:26.065Z,4.80
2017-08-24T18:25:52.033Z,4.00
2017-08-24T18:28:18.126Z,5.43
2017-08-24T18:30:44.159Z,4.10
2017-08-24T18:33:11.077Z,4.03
2017-08-24T18:35:37.276Z,4.27
2017-08-24T18:38:04.840Z,5.30
2017-08-24T18:40:31.630Z,5.73
2017-08-24T18:42:57.648Z,5.97
2017-08-24T18:45:26.360Z,5.43
2017-08-24T18:47:53.013Z,5.70
2017-08-24T18:50:23.096Z,6.53
2017-08-24T18:52:52.043Z,9.17
2017-08-24T18:57:54.115Z,8.47
2017-08-24T19:00:20.832Z,9.43
2017-08-24T19:02:48.652Z,11.93
2017-08-24T19:05:16.429Z,12.73
2017-08-24T19:07:43.055Z,9.17
2017-08-24T19:10:09.756Z,7.50
2017-08-24T19:12:38.790Z,6.77
2017-08-24T19:15:05.429Z,7.83
2017-08-24T19:17:33.295Z,6.97
2017-08-24T19:20:00.928Z,6.20
2017-08-24T19:22:29.098Z,8.50
2017-08-24T19:24:56.040Z,6.83
2017-08-24T19:27:22.029Z,6.30
2017-08-24T19:29:48.009Z,7.43
2017-08-24T19:32:16.656Z,5.37
2017-08-24T19:34:42.724Z,8.13
2017-08-24T19:37:08.770Z,5.67
2017-08-24T19:39:34.798Z,6.87
2017-08-24T19:42:00.817Z,7.50
2017-08-24T19:44:26.944Z,8.07
2017-08-24T19:46:55.706Z,11.83
2017-08-24T19:49:37.617Z,8.00
2017-08-24T19:52:03.628Z,10.07
2017-08-24T19:54:29.663Z,7.10
2017-08-24T19:56:56.598Z,10.77
2017-08-24T19:59:23.005Z,7.03
2017-08-24T20:01:49.316Z,6.50
2017-08-24T20:04:15.295Z,5.10
2017-08-24T20:06:43.525Z,6.10
2017-08-24T20:09:09.615Z,5.53
2017-08-24T20:11:35.600Z,8.80
2017-08-24T20:14:01.633Z,5.00
2017-08-24T20:16:27.695Z,6.47
2017-08-24T20:18:53.746Z,5.87
2017-08-24T20:21:20.296Z,5.30
2017-08-24T20:23:46.392Z,7.00
2017-08-24T20:26:13.288Z,7.40
2017-08-24T20:28:39.320Z,7.23
2017-08-24T20:31:05.416Z,8.40
2017-08-24T20:33:31.603Z,7.10
2017-08-24T20:35:57.593Z,6.30
2017-08-24T20:38:24.200Z,13.60
2017-08-24T20:40:50.437Z,6.10
2017-08-24T20:43:16.474Z,6.07
2017-08-24T20:45:42.507Z,7.13
2017-08-24T20:48:08.463Z,7.33
2017-08-24T20:50:34.478Z,7.30
2017-08-24T20:53:00.461Z,7.93
2017-08-24T20:55:26.451Z,10.23
2017-08-24T20:57:52.449Z,9.60
2017-08-24T21:00:18.832Z,8.13
2017-08-24T21:02:44.899Z,7.90
2017-08-24T21:05:10.807Z,8.50
2017-08-24T21:07:36.849Z,10.63
2017-08-24T21:10:02.898Z,8.90
2017-08-24T21:12:29.017Z,10.57
2017-08-24T21:14:56.020Z,8.33
2017-08-24T21:17:22.037Z,8.60
2017-08-24T21:19:47.986Z,7.87
2017-08-24T21:22:13.987Z,7.77
2017-08-24T21:24:40.234Z,10.17
2017-08-24T21:27:07.184Z,8.37
2017-08-24T21:29:33.473Z,8.80
2017-08-24T21:31:59.447Z,8.80
2017-08-24T21:34:25.428Z,8.23
2017-08-24T21:36:51.437Z,10.27
2017-08-24T21:39:17.449Z,11.93
2017-08-24T21:41:43.448Z,10.33
2017-08-24T21:44:09.455Z,8.53
2017-08-24T21:46:35.497Z,9.93
2017-08-24T21:49:01.482Z,9.10
2017-08-24T21:51:28.313Z,9.17
2017-08-24T21:53:54.335Z,8.03
2017-08-24T21:56:20.354Z,12.90
2017-08-24T21:58:46.381Z,12.00
2017-08-24T22:01:12.413Z,11.73
2017-08-24T22:03:38.387Z,8.13
2017-08-24T22:06:04.442Z,9.00
2017-08-24T22:08:30.403Z,11.03
2017-08-24T22:10:56.359Z,7.60
2017-08-24T22:13:22.330Z,9.57
2017-08-24T22:15:48.302Z,9.60
2017-08-24T22:18:14.349Z,9.10
2017-08-24T22:20:40.331Z,9.33
2017-08-24T22:23:06.308Z,8.73
2017-08-24T22:25:32.279Z,9.33
2017-08-24T22:27:59.045Z,9.10
2017-08-24T22:30:25.049Z,9.70
2017-08-24T22:32:51.793Z,9.07
2017-08-24T22:35:17.877Z,10.93
2017-08-24T22:37:43.827Z,12.00
2017-08-24T22:40:09.860Z,9.53
2017-08-24T22:42:35.822Z,9.47
2017-08-24T22:45:01.819Z,8.97
2017-08-24T22:47:27.754Z,10.50
2017-08-24T22:49:53.866Z,10.00
2017-08-24T22:52:19.885Z,14.40
2017-08-24T22:54:52.054Z,8.40
2017-08-24T22:57:24.063Z,13.03
2017-08-24T22:59:56.235Z,12.07
2017-08-24T23:02:28.248Z,10.10
2017-08-24T23:04:54.225Z,9.70
2017-08-24T23:07:20.180Z,9.77
2017-08-24T23:09:46.173Z,9.67
2017-08-24T23:12:12.152Z,9.00
2017-08-24T23:14:38.142Z,12.30
2017-08-24T23:17:04.179Z,9.13
2017-08-24T23:19:30.386Z,8.90
2017-08-24T23:21:56.491Z,11.80
2017-08-24T23:24:22.456Z,10.13
2017-08-24T23:26:48.423Z,10.17
2017-08-24T23:29:14.407Z,8.50
2017-08-24T23:31:40.396Z,9.43
2017-08-24T23:34:06.322Z,8.60
2017-08-24T23:36:32.257Z,9.63
2017-08-24T23:38:58.188Z,15.17
2017-08-24T23:41:24.264Z,10.40
2017-08-24T23:43:50.275Z,10.23
2017-08-24T23:46:16.246Z,11.57
2017-08-24T23:48:42.214Z,8.50
2017-08-24T23:51:08.189Z,9.20
2017-08-24T23:53:34.249Z,11.50
2017-08-24T23:56:00.187Z,9.13
2017-08-24T23:58:26.198Z,9.83
